• Join FlightAware (Why Join?)
  • Login
  • US Flag 
11:30AM EDT


 

Airport Tracker/Info


-or-


 

Live Flight TrackerFlight Track Log ✈ THY2455 ✈ 01-Jul-2013 ✈ LTAF / ADA - LTBA / IST

Flight Track Log - Related Links

Times and Time Zones

All times are in EDT time to prevent confusion due to time zone crossing. See the THY2455 flight status page for this flight to view local times or setup timezone preferences in your user account.

Time Position Orientation Groundspeed Altitude Reporting Facility
EDT Latitude Longitude Course Direction KTS MPH feet Rate Location/Type
02:28AM 39.8909 30.7110 311° West  Level Estimated
02:29AM 39.9461 30.6176 308° West  Level Estimated
02:30AM 40.0013 30.5241 308° West  Level Estimated
02:31AM 40.0563 30.4304 308° West  Level Estimated
02:32AM 40.1113 30.3366 307° West  Level Estimated
02:33AM 40.1662 30.2426 307° West  Level Estimated
02:34AM 40.2210 30.1485 307° West  Level Estimated
02:35AM 40.2758 30.0543 307° West  Level Estimated
02:36AM 40.3304 29.9598 307° West  Level Estimated
02:37AM 40.3850 29.8653 307° West  Level Estimated
02:38AM 40.4396 29.7705 307° West  Level Estimated
02:39AM 40.4940 29.6757 307° West  Level Estimated
02:40AM 40.5484 29.5806 307° West  Level Estimated
02:41AM 40.6026 29.4854 307° West  Level Estimated
02:42AM 40.6568 29.3901 307° West  Level Estimated
02:43AM 40.7110 29.2946 307° West  Level Estimated
02:44AM 40.7650 29.1989 307° West  Level Estimated
02:45AM 40.8190 29.1031 307° West  Level Estimated
02:46AM 40.8729 29.0072 307° West  Level Estimated
02:47AM 40.9267 28.9110 307° West  Level Estimated
02:48AM 40.9769 28.8211 306° West  Level Estimated
02:49AM 40.9769 28.8211 21° North  Level Estimated
02:50AM 40.9769 28.8211 21° North  Level Estimated
02:51AM 40.9769 28.8211 21° North  Level Estimated
02:52AM 40.9769 28.8211 21° North  Level Estimated
02:53AM 40.9769 28.8211 21° North  Level Estimated
02:54AM 40.9769 28.8211 21° North  Level Estimated
02:55AM 40.9769 28.8211 21° North  Level Estimated
02:56AM 40.9769 28.8211 21° North  Level Estimated
02:57AM 40.9769 28.8211 21° North  Level Estimated
02:58AM 40.9769 28.8211 21° North  Level Estimated
02:59AM 40.9769 28.8211 21° North  Level Estimated
03:00AM 40.9769 28.8211 21° North  Level Estimated
03:01AM 40.9769 28.8211 21° North  Level Estimated
03:02AM 40.9769 28.8211 21° North  Level Estimated
03:03AM 40.9769 28.8211 21° North  Level Estimated
03:04AM 40.9769 28.8211 21° North  Level Estimated